Crystal Hills, Colorado
Current Conditions -  °F | °C
As of 1:56 AM on Wednesday 22 Oct 2014 (Local Time) from KCWN Reporting Station
Broken Clouds Broken Clouds  
Wind Chill: 58°   Ceiling: 11000
Heat Index: 58°   Visibility: 10mi
Dew Point: 32°   Wind: 5mph
Humidity: 38%   Direction: 220°SW
Pressure: 30.02"   Gusts: NA
Location:  38.8344°N, 104.938°W
Report Text: KCWN 220756Z AUTO 22004KT 10SM SCT100 BKN110 BKN240 15/00 A3002 RMK AO2 SLP089 T01450002
Loading
Personal Weather Stations






























Interactive Weather Map
Tropical Storm Tracking
New forecast layout! Learn more

10-Day Weather Forecast

Advertisements
Track Severe Weather on mobile